createdAt,value
2022-12-03T00:00:26.802Z,492.10
2022-12-03T00:02:55.869Z,454.92
2022-12-03T00:05:26.090Z,457.67
2022-12-03T00:07:55.011Z,451.73
2022-12-03T00:10:26.490Z,491.20
2022-12-03T00:12:55.157Z,430.27
2022-12-03T00:15:23.847Z,459.85
2022-12-03T00:17:52.441Z,449.88
2022-12-03T00:20:23.608Z,430.50
2022-12-03T00:22:57.105Z,423.50
2022-12-03T00:25:30.417Z,459.40
2022-12-03T00:28:00.943Z,451.73
2022-12-03T00:30:35.327Z,474.05
2022-12-03T00:33:04.698Z,480.10
2022-12-03T00:35:33.323Z,441.88
2022-12-03T00:38:03.325Z,459.60
2022-12-03T00:40:39.519Z,461.67
2022-12-03T00:43:08.545Z,437.85
2022-12-03T00:45:37.086Z,473.58
2022-12-03T00:48:52.785Z,485.10
2022-12-03T00:51:25.276Z,504.30
2022-12-03T00:53:55.302Z,507.38
2022-12-03T00:56:24.571Z,470.23
2022-12-03T00:58:53.364Z,445.33
2022-12-03T01:01:22.703Z,427.33
2022-12-03T01:03:51.449Z,494.02
2022-12-03T01:06:20.018Z,483.98
2022-12-03T01:08:50.528Z,430.50
2022-12-03T01:11:38.896Z,479.10
2022-12-03T01:14:08.768Z,472.48
2022-12-03T01:16:42.358Z,430.35
2022-12-03T01:19:15.797Z,437.77
2022-12-03T01:21:51.240Z,455.27
2022-12-03T01:24:23.595Z,444.00
2022-12-03T01:26:53.670Z,497.75
2022-12-03T01:29:24.468Z,419.00
2022-12-03T01:32:09.829Z,438.20
2022-12-03T01:34:38.512Z,449.55
2022-12-03T01:37:07.129Z,457.90
2022-12-03T01:39:38.679Z,446.85
2022-12-03T01:42:09.730Z,436.42
2022-12-03T01:44:40.884Z,422.60
2022-12-03T01:47:14.955Z,471.83
2022-12-03T01:49:46.052Z,495.05
2022-12-03T01:52:22.761Z,481.65
2022-12-03T01:54:54.022Z,452.70
2022-12-03T01:57:27.730Z,469.90
2022-12-03T01:59:58.443Z,474.75
2022-12-03T02:02:29.173Z,481.40
2022-12-03T02:04:58.541Z,427.55
2022-12-03T02:07:40.038Z,483.20
2022-12-03T02:10:17.140Z,463.73
2022-12-03T02:13:07.257Z,500.17
2022-12-03T02:15:36.013Z,437.15
2022-12-03T02:18:10.456Z,491.35
2022-12-03T02:20:46.010Z,467.88
2022-12-03T02:23:24.977Z,483.42
2022-12-03T02:25:55.173Z,480.02
2022-12-03T02:28:24.165Z,483.73
2022-12-03T02:30:52.724Z,466.88
2022-12-03T02:33:21.423Z,510.25
2022-12-03T02:35:59.154Z,486.30
2022-12-03T02:38:35.891Z,460.52
2022-12-03T02:41:07.908Z,478.23
2022-12-03T02:43:38.886Z,473.33
2022-12-03T02:46:10.242Z,465.30
2022-12-03T02:48:59.873Z,416.70
2022-12-03T02:51:31.052Z,481.05
2022-12-03T02:54:00.356Z,448.83
2022-12-03T02:56:32.961Z,433.27
2022-12-03T02:59:05.141Z,491.88
2022-12-03T03:01:35.001Z,474.65
2022-12-03T03:04:04.623Z,460.98
2022-12-03T03:06:33.417Z,486.70
2022-12-03T03:09:02.568Z,469.90
2022-12-03T03:11:32.715Z,409.48
2022-12-03T03:14:03.139Z,474.98
2022-12-03T03:16:32.207Z,473.15
2022-12-03T03:19:00.914Z,473.75
2022-12-03T03:21:32.372Z,485.38
2022-12-03T03:24:03.244Z,492.02
2022-12-03T03:26:35.333Z,422.13
2022-12-03T03:29:04.215Z,408.17
2022-12-03T03:31:32.898Z,472.65
2022-12-03T03:34:01.621Z,435.13
2022-12-03T03:36:30.138Z,467.65
2022-12-03T03:38:58.787Z,460.90
2022-12-03T03:41:28.554Z,454.45
2022-12-03T03:43:58.866Z,452.17
2022-12-03T03:46:27.978Z,459.95
2022-12-03T03:48:59.684Z,455.85
2022-12-03T03:51:28.332Z,423.80
2022-12-03T03:53:57.106Z,425.52
2022-12-03T03:56:26.398Z,421.05
2022-12-03T03:58:57.211Z,493.77
2022-12-03T04:01:26.609Z,415.08
2022-12-03T04:03:58.287Z,406.77
2022-12-03T04:06:27.187Z,408.73
2022-12-03T04:08:55.776Z,437.65
2022-12-03T04:11:41.645Z,450.00
2022-12-03T04:14:13.902Z,416.35
2022-12-03T04:16:42.737Z,403.23
2022-12-03T04:19:11.595Z,404.50
2022-12-03T04:21:57.400Z,417.40
2022-12-03T04:24:26.062Z,487.58
2022-12-03T04:27:12.926Z,429.35
2022-12-03T04:29:42.785Z,478.30
2022-12-03T04:32:28.646Z,436.77
2022-12-03T04:35:14.874Z,455.60
2022-12-03T04:37:43.455Z,434.23
2022-12-03T04:40:26.210Z,443.88
2022-12-03T04:42:54.627Z,462.10
2022-12-03T04:45:24.486Z,483.13
2022-12-03T04:48:21.561Z,475.75
2022-12-03T04:50:49.891Z,477.92
2022-12-03T04:53:18.441Z,497.25
2022-12-03T04:55:46.855Z,491.90
2022-12-03T04:58:15.343Z,421.65
2022-12-03T05:00:45.315Z,483.48
2022-12-03T05:03:13.795Z,486.20
2022-12-03T05:05:42.240Z,463.13
2022-12-03T05:08:10.804Z,462.92
2022-12-03T05:10:39.188Z,475.02
2022-12-03T05:13:07.861Z,467.70
2022-12-03T05:15:36.379Z,457.75
2022-12-03T05:18:06.262Z,446.38
2022-12-03T05:20:48.399Z,466.67
2022-12-03T05:23:21.431Z,506.15
2022-12-03T05:25:50.077Z,453.63
2022-12-03T05:28:18.824Z,437.40
2022-12-03T05:30:47.359Z,484.65
2022-12-03T05:33:17.978Z,544.22
2022-12-03T05:35:46.788Z,450.95
2022-12-03T05:38:17.962Z,500.05
2022-12-03T05:40:46.405Z,482.00
2022-12-03T05:43:13.965Z,475.10
2022-12-03T05:45:44.173Z,467.85
2022-12-03T05:48:14.616Z,493.48
2022-12-03T05:50:46.175Z,488.80
2022-12-03T05:53:16.527Z,483.10
2022-12-03T05:55:58.326Z,453.80
2022-12-03T05:58:32.652Z,490.73
2022-12-03T06:01:16.563Z,442.48
2022-12-03T06:03:50.476Z,492.77
2022-12-03T06:06:22.305Z,500.50
2022-12-03T06:08:54.898Z,471.25
2022-12-03T06:11:30.125Z,493.02
2022-12-03T06:14:03.042Z,483.92
2022-12-03T06:17:19.316Z,444.67
2022-12-03T06:19:49.619Z,454.63
2022-12-03T06:22:31.007Z,451.17
2022-12-03T06:25:10.934Z,455.38
2022-12-03T06:27:47.448Z,445.10
2022-12-03T06:30:26.017Z,482.77
2022-12-03T06:32:56.174Z,504.27
2022-12-03T06:35:51.439Z,492.10
2022-12-03T06:38:28.171Z,492.55
2022-12-03T06:41:05.550Z,473.05
2022-12-03T06:43:42.103Z,473.83
2022-12-03T06:46:24.366Z,489.42
2022-12-03T06:49:28.394Z,467.02
2022-12-03T06:51:57.441Z,459.60
2022-12-03T06:54:29.023Z,495.30
2022-12-03T06:57:02.428Z,508.20
2022-12-03T06:59:36.836Z,485.10
2022-12-03T07:02:05.592Z,465.35
2022-12-03T07:04:35.777Z,492.52
2022-12-03T07:07:07.074Z,479.33
2022-12-03T07:09:40.623Z,481.70
2022-12-03T07:12:13.930Z,495.08
2022-12-03T07:14:48.527Z,486.05
2022-12-03T07:17:20.629Z,489.98
2022-12-03T07:19:53.092Z,493.75
2022-12-03T07:22:37.564Z,464.52
2022-12-03T07:25:10.599Z,497.83
2022-12-03T07:27:59.188Z,481.38
2022-12-03T07:30:37.072Z,450.35
2022-12-03T07:41:17.772Z,498.30
2022-12-03T07:43:48.429Z,451.85
2022-12-03T07:46:53.572Z,436.45
2022-12-03T07:50:11.027Z,492.08
2022-12-03T07:53:00.906Z,567.67
2022-12-03T07:55:32.521Z,468.63
2022-12-03T07:58:07.116Z,525.78
2022-12-03T08:03:26.505Z,486.05
2022-12-03T08:06:24.257Z,556.20
2022-12-03T08:08:56.472Z,503.98
2022-12-03T08:11:33.850Z,435.30
2022-12-03T08:14:23.440Z,582.92
2022-12-03T08:17:10.865Z,528.95
2022-12-03T08:19:42.953Z,494.55
2022-12-03T08:22:13.930Z,490.27
2022-12-03T08:24:43.250Z,502.83
2022-12-03T08:27:55.977Z,501.20
2022-12-03T08:30:34.654Z,499.63
2022-12-03T08:33:17.987Z,480.80
2022-12-03T08:36:00.251Z,490.20
2022-12-03T08:38:34.413Z,503.88
2022-12-03T08:41:39.393Z,514.95
2022-12-03T08:44:25.805Z,493.73
2022-12-03T08:47:01.409Z,479.60
2022-12-03T08:49:30.351Z,470.20
2022-12-03T08:52:03.018Z,463.95
2022-12-03T08:54:32.122Z,451.33
2022-12-03T08:57:03.217Z,517.58
2022-12-03T08:59:46.036Z,488.40
2022-12-03T09:09:46.416Z,509.05
2022-12-03T09:12:15.784Z,467.67
2022-12-03T09:14:46.671Z,442.88
2022-12-03T09:18:34.760Z,504.63
2022-12-03T09:21:49.581Z,446.65
2022-12-03T09:24:25.434Z,479.40
2022-12-03T09:27:46.697Z,561.90
2022-12-03T09:36:53.378Z,482.13
2022-12-03T09:39:50.601Z,478.88
2022-12-03T09:42:27.887Z,473.33
2022-12-03T09:45:04.877Z,340.80
2022-12-03T09:51:21.968Z,453.10
2022-12-03T09:54:47.766Z,323.95
2022-12-03T09:57:51.959Z,355.38
2022-12-03T10:00:24.117Z,292.52
2022-12-03T10:02:54.521Z,333.75
2022-12-03T10:05:24.712Z,294.23
2022-12-03T10:07:55.722Z,367.92
2022-12-03T10:10:25.657Z,319.75
2022-12-03T10:12:54.866Z,261.95
2022-12-03T10:15:24.516Z,253.02
2022-12-03T10:17:55.258Z,280.40
2022-12-03T10:20:25.195Z,231.48
2022-12-03T10:22:55.195Z,476.90
2022-12-03T10:25:24.987Z,375.70
2022-12-03T10:27:59.837Z,326.80
2022-12-03T10:30:29.381Z,430.45
2022-12-03T10:33:02.566Z,395.85
2022-12-03T10:35:39.854Z,387.77
2022-12-03T10:38:20.105Z,380.83
2022-12-03T10:40:48.888Z,518.17
2022-12-03T10:43:21.912Z,399.65
2022-12-03T10:45:51.537Z,408.55
2022-12-03T10:48:21.985Z,432.02
2022-12-03T10:50:54.935Z,345.45
2022-12-03T10:53:27.342Z,405.60
2022-12-03T10:55:59.304Z,402.88
2022-12-03T10:58:29.393Z,334.42
2022-12-03T11:00:59.454Z,303.50
2022-12-03T11:03:29.871Z,406.40
2022-12-03T11:05:59.130Z,376.98
2022-12-03T11:08:30.918Z,307.98
2022-12-03T11:11:00.923Z,328.60
2022-12-03T11:13:49.336Z,324.88
2022-12-03T11:17:08.856Z,392.38
2022-12-03T11:19:50.029Z,302.50
2022-12-03T11:22:43.002Z,342.67
2022-12-03T11:25:57.389Z,326.80
2022-12-03T11:28:35.252Z,369.55
2022-12-03T11:31:09.809Z,323.10
2022-12-03T11:36:54.184Z,289.70
2022-12-03T11:40:01.902Z,281.35
2022-12-03T11:42:38.468Z,288.27
2022-12-03T11:45:23.722Z,374.85
2022-12-03T11:48:15.097Z,296.92
2022-12-03T11:50:55.861Z,290.23
2022-12-03T11:53:48.232Z,283.48
2022-12-03T11:56:19.715Z,274.75
2022-12-03T11:58:48.016Z,400.70
2022-12-03T12:01:18.190Z,295.05
2022-12-03T12:03:48.320Z,344.70
2022-12-03T12:06:18.852Z,421.85
2022-12-03T12:08:59.436Z,322.45
2022-12-03T12:11:29.825Z,378.05
2022-12-03T12:13:59.908Z,350.75
2022-12-03T12:16:39.392Z,336.67
2022-12-03T12:19:36.918Z,318.20
2022-12-03T12:22:30.106Z,276.92
2022-12-03T12:25:01.954Z,318.13
2022-12-03T12:27:36.094Z,290.30
2022-12-03T12:30:08.755Z,351.67
2022-12-03T12:32:43.243Z,307.42
2022-12-03T12:35:17.482Z,270.08
2022-12-03T12:37:56.843Z,316.55
2022-12-03T12:40:30.717Z,298.65
2022-12-03T12:43:10.241Z,271.13
2022-12-03T12:45:50.754Z,246.40
2022-12-03T12:48:26.149Z,311.77
2022-12-03T12:51:01.246Z,287.27
2022-12-03T12:53:31.974Z,266.85
2022-12-03T12:56:10.871Z,316.30
2022-12-03T12:58:39.495Z,355.92
2022-12-03T13:01:12.873Z,291.80
2022-12-03T13:03:41.665Z,352.52
2022-12-03T13:06:12.670Z,419.25
2022-12-03T13:08:43.333Z,371.33
2022-12-03T13:11:21.748Z,438.48
2022-12-03T13:13:50.608Z,344.10
2022-12-03T13:16:22.593Z,369.02
2022-12-03T13:18:54.193Z,301.85
2022-12-03T13:21:25.492Z,321.60
2022-12-03T13:23:55.712Z,353.02
2022-12-03T13:26:39.006Z,329.80
2022-12-03T13:29:14.889Z,301.65
2022-12-03T13:31:46.606Z,315.02
2022-12-03T13:34:18.086Z,307.27
2022-12-03T13:36:53.542Z,344.50
2022-12-03T13:39:29.533Z,364.13
2022-12-03T13:42:18.112Z,314.00
2022-12-03T13:44:48.732Z,320.33
2022-12-03T13:47:20.875Z,318.05
2022-12-03T13:49:52.394Z,325.27
2022-12-03T13:52:22.957Z,326.50
2022-12-03T13:54:53.382Z,353.92
2022-12-03T13:57:23.581Z,407.88
2022-12-03T13:59:52.491Z,300.33
2022-12-03T14:02:21.382Z,272.38
2022-12-03T14:04:52.163Z,307.52
2022-12-03T14:07:24.161Z,386.80
2022-12-03T14:09:52.985Z,279.35
2022-12-03T14:12:33.756Z,259.38
2022-12-03T14:15:03.406Z,265.95
2022-12-03T14:17:32.748Z,277.85
2022-12-03T14:20:01.822Z,302.65
2022-12-03T14:22:30.601Z,258.00
2022-12-03T14:24:59.664Z,268.77
2022-12-03T14:56:43.788Z,272.67
2022-12-03T15:03:25.235Z,338.10
2022-12-03T15:06:28.151Z,260.48
2022-12-03T15:09:28.777Z,284.75
2022-12-03T15:12:24.749Z,316.98
2022-12-03T15:15:09.177Z,287.60
2022-12-03T15:21:15.674Z,358.05
2022-12-03T15:23:53.914Z,287.92
2022-12-03T15:26:38.053Z,274.25
2022-12-03T15:29:10.441Z,311.63
2022-12-03T15:32:03.249Z,306.38
2022-12-03T15:34:53.465Z,309.05
2022-12-03T15:38:39.639Z,276.88
2022-12-03T15:41:54.045Z,261.25
2022-12-03T15:44:28.516Z,295.15
2022-12-03T15:47:14.528Z,300.00
2022-12-03T15:53:06.704Z,274.17
2022-12-03T15:55:35.615Z,347.00
2022-12-03T15:59:06.623Z,305.83
2022-12-03T16:01:50.130Z,498.05
2022-12-03T16:04:25.370Z,331.77
2022-12-03T16:06:59.275Z,335.55
2022-12-03T16:09:37.866Z,299.80
2022-12-03T16:12:06.955Z,244.95
2022-12-03T16:14:35.499Z,226.73
2022-12-03T16:17:23.726Z,275.83
2022-12-03T16:19:53.657Z,273.80
2022-12-03T16:22:22.419Z,264.80
2022-12-03T16:24:50.870Z,304.10
2022-12-03T16:27:22.822Z,324.20
2022-12-03T16:32:25.241Z,282.58
2022-12-03T16:34:55.461Z,276.30
2022-12-03T16:37:24.004Z,256.75
2022-12-03T16:39:53.876Z,270.35
2022-12-03T16:42:23.937Z,326.52
2022-12-03T16:45:15.447Z,301.73
2022-12-03T16:47:44.067Z,241.35
2022-12-03T16:50:21.884Z,275.00
2022-12-03T16:53:00.317Z,298.60
2022-12-03T16:55:29.070Z,232.70
2022-12-03T16:57:57.469Z,256.73
2022-12-03T17:00:26.411Z,250.80
2022-12-03T17:02:55.035Z,236.77
2022-12-03T17:05:25.295Z,412.80
2022-12-03T17:07:53.878Z,266.88
2022-12-03T17:10:22.513Z,294.95
2022-12-03T17:15:40.330Z,261.35
2022-12-03T17:18:09.725Z,323.27
2022-12-03T17:20:40.086Z,277.13
2022-12-03T17:23:09.085Z,258.38
2022-12-03T17:25:43.060Z,243.05
2022-12-03T17:28:36.405Z,256.98
2022-12-03T17:31:04.980Z,279.52
2022-12-03T17:33:33.573Z,266.45
2022-12-03T17:36:03.856Z,256.45
2022-12-03T17:38:38.856Z,384.67
2022-12-03T17:41:08.558Z,261.83
2022-12-03T17:43:37.647Z,345.92
2022-12-03T17:46:07.871Z,260.65
2022-12-03T17:52:33.767Z,251.05
2022-12-03T17:58:55.314Z,282.10
2022-12-03T18:01:24.942Z,281.67
2022-12-03T18:04:04.426Z,297.15
2022-12-03T18:06:35.672Z,275.88
2022-12-03T18:09:04.747Z,274.83
2022-12-03T18:11:36.883Z,252.25
2022-12-03T18:14:07.412Z,284.98
2022-12-03T18:17:06.876Z,291.33
2022-12-03T18:19:56.107Z,250.27
2022-12-03T18:22:28.216Z,247.35
2022-12-03T18:24:58.129Z,314.33
2022-12-03T18:27:30.772Z,237.02
2022-12-03T18:30:30.947Z,256.17
2022-12-03T18:33:24.580Z,306.23
2022-12-03T18:39:50.298Z,250.95
2022-12-03T18:42:27.725Z,292.50
2022-12-03T18:45:02.168Z,253.63
2022-12-03T18:47:41.258Z,243.80
2022-12-03T18:50:21.566Z,269.25
2022-12-03T18:53:06.712Z,260.17
2022-12-03T18:55:41.463Z,267.92
2022-12-03T19:00:50.277Z,267.90
2022-12-03T19:03:36.226Z,309.90
2022-12-03T19:06:17.220Z,285.63
2022-12-03T19:09:01.282Z,265.13
2022-12-03T19:14:24.686Z,306.88
2022-12-03T19:16:58.566Z,258.25
2022-12-03T19:20:06.206Z,367.98
2022-12-03T19:22:39.386Z,269.30
2022-12-03T19:25:16.164Z,250.02
2022-12-03T19:27:53.162Z,266.55
2022-12-03T19:30:26.511Z,279.20
2022-12-03T19:33:03.614Z,353.05
2022-12-03T19:35:33.662Z,256.08
2022-12-03T19:38:03.814Z,273.77
2022-12-03T19:40:32.540Z,241.10
2022-12-03T19:43:01.349Z,265.08
2022-12-03T19:45:29.925Z,224.18
2022-12-03T19:47:59.663Z,224.02
2022-12-03T19:50:28.039Z,294.77
2022-12-03T19:52:56.544Z,237.40
2022-12-03T19:55:26.544Z,252.13
2022-12-03T19:57:55.081Z,257.42
2022-12-03T20:00:23.710Z,210.25
2022-12-03T20:02:52.354Z,253.55
2022-12-03T20:05:21.067Z,235.32
2022-12-03T20:07:49.690Z,245.18
2022-12-03T20:10:20.631Z,199.25
2022-12-03T20:12:52.646Z,229.73
2022-12-03T20:15:21.751Z,256.75
2022-12-03T20:17:50.815Z,270.48
2022-12-03T20:20:19.422Z,210.43
2022-12-03T20:22:48.218Z,336.23
2022-12-03T20:25:16.827Z,251.55
2022-12-03T20:27:45.406Z,202.25
2022-12-03T20:30:15.817Z,233.55
2022-12-03T20:32:45.700Z,238.40
2022-12-03T20:35:14.439Z,211.82
2022-12-03T20:37:42.950Z,229.82
2022-12-03T20:40:12.261Z,223.38
2022-12-03T20:42:40.734Z,240.95
2022-12-03T20:45:10.318Z,254.73
2022-12-03T20:47:40.185Z,267.10
2022-12-03T20:50:09.438Z,242.57
2022-12-03T20:52:45.291Z,232.45
2022-12-03T20:55:26.507Z,264.33
2022-12-03T20:57:55.200Z,252.05
2022-12-03T21:00:24.090Z,262.30
2022-12-03T21:02:54.175Z,265.60
2022-12-03T21:05:22.690Z,252.40
2022-12-03T21:07:52.500Z,257.80
2022-12-03T21:10:44.893Z,249.40
2022-12-03T21:13:17.448Z,271.23
2022-12-03T21:15:46.836Z,219.75
2022-12-03T21:18:18.430Z,227.82
2022-12-03T21:20:48.467Z,232.27
2022-12-03T21:23:17.097Z,303.15
2022-12-03T21:25:45.544Z,241.65
2022-12-03T21:28:14.058Z,235.45
2022-12-03T21:30:42.555Z,266.40
2022-12-03T21:33:11.271Z,231.27
2022-12-03T21:35:41.345Z,178.82
2022-12-03T21:38:09.821Z,198.68
2022-12-03T21:40:38.301Z,242.70
2022-12-03T21:43:06.772Z,237.48
2022-12-03T21:45:35.269Z,218.65
2022-12-03T21:48:05.826Z,181.88
2022-12-03T21:50:39.617Z,207.93
2022-12-03T21:53:23.251Z,226.95
2022-12-03T21:56:11.886Z,185.20
2022-12-03T21:58:42.498Z,232.70
2022-12-03T22:01:19.245Z,267.13
2022-12-03T22:04:10.613Z,186.25
2022-12-03T22:06:41.977Z,243.80
2022-12-03T22:09:15.427Z,207.88
2022-12-03T22:15:40.427Z,227.50
2022-12-03T22:18:21.813Z,213.55
2022-12-03T22:20:52.096Z,206.43
2022-12-03T22:23:22.642Z,244.25
2022-12-03T22:26:01.372Z,263.38
2022-12-03T22:28:38.181Z,247.73
2022-12-03T22:34:14.929Z,209.50
2022-12-03T22:36:59.706Z,260.55
2022-12-03T22:39:33.381Z,222.95
2022-12-03T22:42:07.011Z,252.97
2022-12-03T22:44:36.629Z,224.17
2022-12-03T22:47:08.875Z,226.30
2022-12-03T22:49:48.152Z,272.42
2022-12-03T22:52:42.368Z,223.02
2022-12-03T22:55:16.508Z,261.63
2022-12-03T22:57:52.515Z,244.20
2022-12-03T23:00:34.267Z,237.63
2022-12-03T23:03:04.907Z,247.18
2022-12-03T23:05:38.311Z,217.48
2022-12-03T23:08:20.777Z,267.30
2022-12-03T23:10:55.783Z,304.13
2022-12-03T23:13:32.319Z,245.85
2022-12-03T23:16:01.552Z,249.68
2022-12-03T23:18:30.189Z,288.38
2022-12-03T23:20:59.074Z,252.00
2022-12-03T23:23:28.942Z,244.32
2022-12-03T23:26:00.483Z,252.82
2022-12-03T23:28:32.206Z,246.02
2022-12-03T23:31:00.965Z,254.27
2022-12-03T23:33:31.997Z,275.55
2022-12-03T23:36:07.147Z,239.65
2022-12-03T23:38:35.810Z,248.07
2022-12-03T23:41:05.487Z,225.93
2022-12-03T23:43:35.444Z,245.82
2022-12-03T23:46:08.180Z,220.18
2022-12-03T23:48:36.781Z,228.27
2022-12-03T23:51:07.939Z,239.32
2022-12-03T23:53:37.068Z,243.07
2022-12-03T23:56:07.012Z,237.27
2022-12-03T23:58:37.350Z,229.32
